createdAt,value
2017-12-14T00:00:30.079Z,4.00
2017-12-14T00:02:58.336Z,4.00
2017-12-14T00:05:26.715Z,4.20
2017-12-14T00:07:54.952Z,4.20
2017-12-14T00:10:40.979Z,4.20
2017-12-14T00:13:09.264Z,4.30
2017-12-14T00:15:37.609Z,4.20
2017-12-14T00:18:07.693Z,4.00
2017-12-14T00:20:36.743Z,3.90
2017-12-14T00:23:05.134Z,3.90
2017-12-14T00:25:33.616Z,4.00
2017-12-14T00:28:01.886Z,3.80
2017-12-14T00:30:30.144Z,3.90
2017-12-14T00:32:58.549Z,3.90
2017-12-14T00:35:26.820Z,3.90
2017-12-14T00:37:55.080Z,3.90
2017-12-14T00:40:23.389Z,4.00
2017-12-14T00:42:51.755Z,4.10
2017-12-14T00:45:20.007Z,4.20
2017-12-14T00:47:48.279Z,4.10
2017-12-14T00:50:16.544Z,3.90
2017-12-14T00:52:44.904Z,4.00
2017-12-14T00:55:13.932Z,4.10
2017-12-14T00:57:42.184Z,4.10
2017-12-14T01:00:11.229Z,4.20
2017-12-14T01:02:39.532Z,4.20
2017-12-14T01:05:07.814Z,4.30
2017-12-14T01:07:36.081Z,4.10
2017-12-14T01:10:04.445Z,4.10
2017-12-14T01:12:32.708Z,4.10
2017-12-14T01:15:01.051Z,4.00
2017-12-14T01:17:30.056Z,3.90
2017-12-14T01:19:58.327Z,3.90
2017-12-14T01:22:26.592Z,4.00
2017-12-14T01:24:56.569Z,4.00
2017-12-14T01:27:24.842Z,4.00
2017-12-14T01:29:53.080Z,3.90
2017-12-14T01:32:21.348Z,3.90
2017-12-14T01:34:49.595Z,3.90
2017-12-14T01:37:18.657Z,3.70
2017-12-14T01:39:47.018Z,3.70
2017-12-14T01:42:15.268Z,3.60
2017-12-14T01:44:44.422Z,3.50
2017-12-14T01:47:12.667Z,3.50
2017-12-14T01:49:40.975Z,3.40
2017-12-14T01:52:09.262Z,3.30
2017-12-14T01:54:37.572Z,3.10
2017-12-14T01:57:06.666Z,2.90
2017-12-14T01:59:34.948Z,2.90
2017-12-14T02:02:03.225Z,2.80
2017-12-14T02:04:31.578Z,2.80
2017-12-14T02:06:59.816Z,2.60
2017-12-14T02:09:28.087Z,2.60
2017-12-14T02:11:56.382Z,2.70
2017-12-14T02:14:24.771Z,2.80
2017-12-14T02:16:53.011Z,2.70
2017-12-14T02:19:21.271Z,2.70
2017-12-14T02:21:50.314Z,2.60
2017-12-14T02:24:18.664Z,2.60
2017-12-14T02:26:46.951Z,2.50
2017-12-14T02:29:15.209Z,2.50
2017-12-14T02:31:43.474Z,2.70
2017-12-14T02:34:12.622Z,2.90
2017-12-14T02:36:40.872Z,2.90
2017-12-14T02:39:09.182Z,3.00
2017-12-14T02:41:37.441Z,2.80
2017-12-14T02:44:05.764Z,2.90
2017-12-14T02:46:34.804Z,3.10
2017-12-14T02:49:03.106Z,3.10
2017-12-14T02:51:31.396Z,3.20
2017-12-14T02:53:59.657Z,3.20
2017-12-14T02:56:27.904Z,3.30
2017-12-14T02:58:56.175Z,3.20
2017-12-14T03:01:24.431Z,3.30
2017-12-14T03:03:53.577Z,3.40
2017-12-14T03:06:21.907Z,3.30
2017-12-14T03:08:51.163Z,3.30
2017-12-14T03:11:19.423Z,3.30
2017-12-14T03:13:47.667Z,3.40
2017-12-14T03:16:16.814Z,3.60
2017-12-14T03:18:45.151Z,3.60
2017-12-14T03:21:13.391Z,3.60
2017-12-14T03:23:42.436Z,3.70
2017-12-14T03:26:10.769Z,3.70
2017-12-14T03:28:39.068Z,3.70
2017-12-14T03:31:07.394Z,3.80
2017-12-14T03:33:35.776Z,3.90
2017-12-14T03:36:04.060Z,3.90
2017-12-14T03:38:32.443Z,4.00
2017-12-14T03:41:01.535Z,4.20
2017-12-14T03:43:29.793Z,4.10
2017-12-14T03:45:58.082Z,4.20
2017-12-14T03:48:26.462Z,4.30
2017-12-14T03:50:54.715Z,4.30
2017-12-14T03:53:23.010Z,4.40
2017-12-14T03:55:51.249Z,4.50
2017-12-14T03:58:19.496Z,4.60
2017-12-14T04:00:47.772Z,4.60
2017-12-14T04:03:17.523Z,4.70
2017-12-14T04:05:45.800Z,4.70
2017-12-14T04:08:14.107Z,4.80
2017-12-14T04:10:42.492Z,4.80
2017-12-14T04:13:10.859Z,4.90
2017-12-14T04:15:39.121Z,4.90
2017-12-14T04:18:07.388Z,4.90
2017-12-14T04:20:35.640Z,5.00
2017-12-14T04:23:04.659Z,5.10
2017-12-14T04:25:32.944Z,5.10
2017-12-14T04:28:01.250Z,5.20
2017-12-14T04:30:29.503Z,5.10
2017-12-14T04:32:57.765Z,5.10
2017-12-14T04:35:26.014Z,5.00
2017-12-14T04:37:54.303Z,5.00
2017-12-14T04:40:22.654Z,5.20
2017-12-14T04:42:50.930Z,5.10
2017-12-14T04:45:19.233Z,5.10
2017-12-14T04:47:47.476Z,5.20
2017-12-14T04:50:15.813Z,5.10
2017-12-14T04:52:44.876Z,5.10
2017-12-14T04:55:13.264Z,5.10
2017-12-14T04:57:41.532Z,5.20
2017-12-14T05:00:09.786Z,5.20
2017-12-14T05:02:38.066Z,5.10
2017-12-14T05:05:06.316Z,5.30
2017-12-14T05:07:34.679Z,5.30
2017-12-14T05:10:03.703Z,5.20
2017-12-14T05:12:31.973Z,5.20
2017-12-14T05:15:00.293Z,5.20
2017-12-14T05:17:28.554Z,5.20
2017-12-14T05:19:56.944Z,5.20
2017-12-14T05:22:25.196Z,5.30
2017-12-14T05:24:53.455Z,5.20
2017-12-14T05:27:21.890Z,5.30
2017-12-14T05:29:50.127Z,5.20
2017-12-14T05:32:18.414Z,5.30
2017-12-14T05:34:46.711Z,5.40
2017-12-14T05:37:14.976Z,5.40
2017-12-14T05:39:43.258Z,5.30
2017-12-14T05:42:11.525Z,5.30
2017-12-14T05:44:39.930Z,5.30
2017-12-14T05:47:08.208Z,5.20
2017-12-14T05:49:36.472Z,5.30
2017-12-14T05:52:04.757Z,5.30
2017-12-14T05:54:33.013Z,5.30
2017-12-14T05:57:01.291Z,5.30
2017-12-14T05:59:29.627Z,5.20
2017-12-14T06:01:57.869Z,5.20
2017-12-14T06:04:26.167Z,5.30
2017-12-14T06:06:55.197Z,5.30
2017-12-14T06:09:23.624Z,5.30
2017-12-14T06:11:51.859Z,5.20
2017-12-14T06:14:20.280Z,5.20
2017-12-14T06:16:48.535Z,5.10
2017-12-14T06:19:16.839Z,5.00
2017-12-14T06:21:45.142Z,5.00
2017-12-14T06:24:14.156Z,4.90
2017-12-14T06:26:42.475Z,4.90
2017-12-14T06:29:10.755Z,4.90
2017-12-14T06:31:39.012Z,4.90
2017-12-14T06:34:07.328Z,5.00
2017-12-14T06:36:35.688Z,5.00
2017-12-14T06:39:03.936Z,5.00
2017-12-14T06:41:32.246Z,4.90
2017-12-14T06:44:00.516Z,4.90
2017-12-14T06:46:28.905Z,5.00
2017-12-14T06:48:57.145Z,4.90
2017-12-14T06:51:25.440Z,4.80
2017-12-14T06:53:53.708Z,4.80
2017-12-14T06:56:21.984Z,4.80
2017-12-14T06:58:50.381Z,4.80
2017-12-14T07:01:18.637Z,4.70
2017-12-14T07:03:46.891Z,4.60
2017-12-14T07:06:15.923Z,4.60
2017-12-14T07:08:44.175Z,4.60
2017-12-14T07:11:12.598Z,4.60
2017-12-14T07:13:40.936Z,4.50
2017-12-14T07:16:09.183Z,4.60
2017-12-14T07:18:38.223Z,4.60
2017-12-14T07:21:06.522Z,4.60
2017-12-14T07:23:34.771Z,4.60
2017-12-14T07:26:03.053Z,4.60
2017-12-14T07:28:31.305Z,4.60
2017-12-14T07:31:00.446Z,4.70
2017-12-14T07:33:28.728Z,4.70
2017-12-14T07:35:57.102Z,4.70
2017-12-14T07:38:25.376Z,4.70
2017-12-14T07:40:53.628Z,4.70
2017-12-14T07:43:21.905Z,4.70
2017-12-14T07:46:10.716Z,4.70
2017-12-14T07:48:38.988Z,4.70
2017-12-14T07:51:07.251Z,4.70
2017-12-14T07:53:35.624Z,4.70
2017-12-14T07:56:03.876Z,4.70
2017-12-14T07:58:32.136Z,4.70
2017-12-14T08:01:00.419Z,4.70
2017-12-14T08:03:28.673Z,4.70
2017-12-14T08:05:57.691Z,4.70
2017-12-14T08:08:25.967Z,4.70
2017-12-14T08:10:54.225Z,4.80
2017-12-14T08:13:23.252Z,4.70
2017-12-14T08:15:51.528Z,4.70
2017-12-14T08:18:19.820Z,4.70
2017-12-14T08:20:48.080Z,4.70
2017-12-14T08:23:16.361Z,4.80
2017-12-14T08:25:44.622Z,4.70
2017-12-14T08:28:12.901Z,4.70
2017-12-14T08:30:41.172Z,4.70
2017-12-14T08:33:09.431Z,4.70
2017-12-14T08:35:38.455Z,4.80
2017-12-14T08:38:06.740Z,4.80
2017-12-14T08:40:35.007Z,4.70
2017-12-14T08:43:03.265Z,4.70
2017-12-14T08:45:32.365Z,4.80
2017-12-14T08:48:00.615Z,4.80
2017-12-14T08:50:29.687Z,4.80
2017-12-14T08:52:57.978Z,4.80
2017-12-14T08:55:26.238Z,4.80
2017-12-14T08:57:54.497Z,4.80
2017-12-14T09:00:22.881Z,4.90
2017-12-14T09:02:51.141Z,4.90
2017-12-14T09:05:19.436Z,4.90
2017-12-14T09:07:47.710Z,4.90
2017-12-14T09:10:15.966Z,4.90
2017-12-14T09:12:44.224Z,5.00
2017-12-14T09:15:12.506Z,5.00
2017-12-14T09:17:40.760Z,5.00
2017-12-14T09:20:09.819Z,5.10
2017-12-14T09:22:38.139Z,5.00
2017-12-14T09:25:07.201Z,5.00
2017-12-14T09:27:35.437Z,5.00
2017-12-14T09:30:03.721Z,5.00
2017-12-14T09:32:32.024Z,5.00
2017-12-14T09:35:00.277Z,5.10
2017-12-14T09:37:28.573Z,5.10
2017-12-14T09:39:56.820Z,5.10
2017-12-14T09:42:25.070Z,5.10
2017-12-14T09:44:54.107Z,5.10
2017-12-14T09:47:22.365Z,5.10
2017-12-14T09:49:50.644Z,5.10
2017-12-14T09:52:18.971Z,5.10
2017-12-14T09:54:47.224Z,5.00
2017-12-14T09:57:15.476Z,5.10
2017-12-14T09:59:43.783Z,5.10
2017-12-14T10:02:12.041Z,5.20
2017-12-14T10:04:40.337Z,5.30
2017-12-14T10:07:08.617Z,5.40
2017-12-14T10:09:36.877Z,5.40
2017-12-14T10:12:05.137Z,5.30
2017-12-14T10:14:33.427Z,5.30
2017-12-14T10:17:01.824Z,5.30
2017-12-14T10:19:30.085Z,5.30
2017-12-14T10:21:58.476Z,5.30
2017-12-14T10:24:26.723Z,5.30
2017-12-14T10:26:54.989Z,5.30
2017-12-14T10:29:23.298Z,5.30
2017-12-14T10:31:51.556Z,5.30
2017-12-14T10:34:19.814Z,5.40
2017-12-14T10:36:48.247Z,5.40
2017-12-14T10:39:16.534Z,5.40
2017-12-14T10:41:44.901Z,5.40
2017-12-14T10:44:13.176Z,5.40
2017-12-14T10:46:41.423Z,5.40
2017-12-14T10:49:09.712Z,5.40
2017-12-14T10:51:37.976Z,5.30
2017-12-14T10:54:06.228Z,5.30
2017-12-14T10:56:35.384Z,5.20
2017-12-14T10:59:03.661Z,5.30
2017-12-14T11:01:31.930Z,5.30
2017-12-14T11:04:00.218Z,5.20
2017-12-14T11:06:28.593Z,5.20
2017-12-14T11:08:56.857Z,5.30
2017-12-14T11:11:25.120Z,5.30
2017-12-14T11:13:53.391Z,5.40
2017-12-14T11:16:21.760Z,5.40
2017-12-14T11:18:50.080Z,5.40
2017-12-14T11:21:18.362Z,5.40
2017-12-14T11:23:46.737Z,5.50
2017-12-14T11:26:15.136Z,5.50
2017-12-14T11:28:43.495Z,5.50
2017-12-14T11:31:11.774Z,5.50
2017-12-14T11:33:40.044Z,5.50
2017-12-14T11:36:08.326Z,5.50
2017-12-14T11:38:36.579Z,5.60
2017-12-14T11:41:04.880Z,5.60
2017-12-14T11:43:33.146Z,5.60
2017-12-14T11:46:01.405Z,5.70
2017-12-14T11:48:29.705Z,5.70
2017-12-14T11:50:58.091Z,5.50
2017-12-14T11:53:26.340Z,5.50
2017-12-14T11:55:54.641Z,5.40
2017-12-14T11:58:22.937Z,5.40
2017-12-14T12:00:51.193Z,5.30
2017-12-14T12:03:19.444Z,5.10
2017-12-14T12:05:47.717Z,5.10
2017-12-14T12:08:16.039Z,5.10
2017-12-14T12:10:44.302Z,5.10
2017-12-14T12:13:12.585Z,5.10
2017-12-14T12:15:40.966Z,5.10
2017-12-14T12:18:09.216Z,5.20
2017-12-14T12:20:37.500Z,5.10
2017-12-14T12:23:05.749Z,5.20
2017-12-14T12:25:34.005Z,5.10
2017-12-14T12:28:03.057Z,5.30
2017-12-14T12:30:31.312Z,5.30
2017-12-14T12:32:59.568Z,5.40
2017-12-14T12:35:27.853Z,5.30
2017-12-14T12:37:56.113Z,5.30
2017-12-14T12:40:25.140Z,5.00
2017-12-14T12:42:53.430Z,5.00
2017-12-14T12:45:21.679Z,4.70
2017-12-14T12:47:49.932Z,4.60
2017-12-14T12:50:18.987Z,4.60
2017-12-14T12:52:47.231Z,4.60
2017-12-14T12:55:15.479Z,4.70
2017-12-14T12:57:44.534Z,4.60
2017-12-14T13:00:12.788Z,4.60
2017-12-14T13:02:41.046Z,4.60
2017-12-14T13:05:09.327Z,4.60
2017-12-14T13:07:37.579Z,4.60
2017-12-14T13:10:06.616Z,4.60
2017-12-14T13:12:34.887Z,4.60
2017-12-14T13:15:03.195Z,4.70
2017-12-14T13:17:31.444Z,4.80
2017-12-14T13:19:59.744Z,4.70
2017-12-14T13:22:28.012Z,4.70
2017-12-14T13:24:56.274Z,4.60
2017-12-14T13:27:24.564Z,4.60
2017-12-14T13:29:52.856Z,4.70
2017-12-14T13:32:21.136Z,4.70
2017-12-14T13:34:49.403Z,4.60
2017-12-14T13:37:17.662Z,4.60
2017-12-14T13:39:45.910Z,4.60
2017-12-14T13:42:14.960Z,4.70
2017-12-14T13:44:43.343Z,4.70
2017-12-14T13:47:11.591Z,4.70
2017-12-14T13:49:39.880Z,4.60
2017-12-14T13:52:08.140Z,4.60
2017-12-14T13:54:36.404Z,4.60
2017-12-14T13:57:04.682Z,4.70
2017-12-14T13:59:32.928Z,4.70
2017-12-14T14:02:02.103Z,4.70
2017-12-14T14:04:30.365Z,4.70
2017-12-14T14:06:58.801Z,4.70
2017-12-14T14:09:27.041Z,4.70
2017-12-14T14:11:55.324Z,4.60
2017-12-14T14:14:23.572Z,4.60
2017-12-14T14:16:52.171Z,4.50
2017-12-14T14:19:20.445Z,4.50
2017-12-14T14:21:48.708Z,4.50
2017-12-14T14:24:16.964Z,4.60
2017-12-14T14:26:45.269Z,4.60
2017-12-14T14:29:13.530Z,4.70
2017-12-14T14:31:41.819Z,4.70
2017-12-14T14:34:10.126Z,4.70
2017-12-14T14:36:38.375Z,4.70
2017-12-14T14:39:06.620Z,4.70
2017-12-14T14:41:34.939Z,4.70
2017-12-14T14:44:03.180Z,4.70
2017-12-14T14:46:31.472Z,4.70
2017-12-14T14:48:59.761Z,4.70
2017-12-14T14:51:28.016Z,4.70
2017-12-14T14:53:56.278Z,4.70
2017-12-14T14:56:24.611Z,4.70
2017-12-14T14:58:52.881Z,4.70
2017-12-14T15:01:21.138Z,4.70
2017-12-14T15:03:49.407Z,4.70
2017-12-14T15:06:17.807Z,4.70
2017-12-14T15:08:46.063Z,4.80
2017-12-14T15:11:14.377Z,4.70
2017-12-14T15:13:42.627Z,4.70
2017-12-14T15:16:10.875Z,4.70
2017-12-14T15:18:39.161Z,4.70
2017-12-14T15:21:07.415Z,4.60
2017-12-14T15:23:36.428Z,4.60
2017-12-14T15:26:04.714Z,4.50
2017-12-14T15:28:32.964Z,4.60
2017-12-14T15:31:01.988Z,4.50
2017-12-14T15:33:30.601Z,4.40
2017-12-14T15:35:59.203Z,4.40
2017-12-14T15:38:28.281Z,4.40
2017-12-14T15:40:56.570Z,4.40
2017-12-14T15:43:24.837Z,4.30
2017-12-14T15:45:53.092Z,4.30
2017-12-14T15:48:22.136Z,4.20
2017-12-14T15:50:50.395Z,4.30
2017-12-14T15:53:18.644Z,4.30
2017-12-14T15:55:47.679Z,4.20
2017-12-14T15:58:15.931Z,4.20
2017-12-14T16:00:44.179Z,4.10
2017-12-14T16:03:12.488Z,4.10
2017-12-14T16:05:40.736Z,4.00
2017-12-14T16:08:09.780Z,3.90
2017-12-14T16:10:38.067Z,3.90
2017-12-14T16:13:06.326Z,3.90
2017-12-14T16:15:34.740Z,3.90
2017-12-14T16:18:03.004Z,3.90
2017-12-14T16:20:31.286Z,3.80
2017-12-14T16:22:59.529Z,3.70
2017-12-14T16:25:27.815Z,3.60
2017-12-14T16:27:56.076Z,3.50
2017-12-14T16:30:24.328Z,3.20
2017-12-14T16:32:52.609Z,3.10
2017-12-14T16:35:22.301Z,3.00
2017-12-14T16:37:50.665Z,3.00
2017-12-14T16:40:18.932Z,2.90
2017-12-14T16:42:47.193Z,2.80
2017-12-14T16:45:15.456Z,2.80
2017-12-14T16:47:44.643Z,2.80
2017-12-14T16:50:12.909Z,2.70
2017-12-14T16:52:41.941Z,2.80
2017-12-14T16:55:10.221Z,2.70
2017-12-14T16:57:38.476Z,2.70
2017-12-14T17:00:06.736Z,2.70
2017-12-14T17:02:35.792Z,2.80
2017-12-14T17:05:04.046Z,2.70
2017-12-14T17:07:32.308Z,2.80
2017-12-14T17:10:00.633Z,2.70
2017-12-14T17:12:28.877Z,2.70
2017-12-14T17:14:57.128Z,2.70
2017-12-14T17:17:25.400Z,2.70
2017-12-14T17:19:53.661Z,2.80
2017-12-14T17:22:22.684Z,2.80
2017-12-14T17:24:50.968Z,2.80
2017-12-14T17:27:19.224Z,2.80
2017-12-14T17:29:48.244Z,2.80
2017-12-14T17:32:16.542Z,2.80
2017-12-14T17:34:44.796Z,2.80
2017-12-14T17:37:13.113Z,2.80
2017-12-14T17:39:41.486Z,2.80
2017-12-14T17:42:09.738Z,2.80
2017-12-14T17:44:37.984Z,2.80
2017-12-14T17:47:07.073Z,2.80
2017-12-14T17:49:36.093Z,2.90
2017-12-14T17:52:04.404Z,2.90
2017-12-14T17:54:32.681Z,3.00
2017-12-14T17:57:00.932Z,3.00
2017-12-14T17:59:29.188Z,3.00
2017-12-14T18:01:57.471Z,3.10
2017-12-14T18:04:25.728Z,3.20
2017-12-14T18:06:54.745Z,3.20
2017-12-14T18:09:23.035Z,3.20
2017-12-14T18:11:52.111Z,3.20
2017-12-14T18:14:20.372Z,3.20
2017-12-14T18:16:49.413Z,3.20
2017-12-14T18:19:17.675Z,3.20
2017-12-14T18:21:45.936Z,3.20
2017-12-14T18:24:14.208Z,3.20
2017-12-14T18:26:42.466Z,3.20
2017-12-14T18:29:11.480Z,3.20
2017-12-14T18:31:39.782Z,3.20
2017-12-14T18:34:08.028Z,3.20
2017-12-14T18:36:36.285Z,3.20
2017-12-14T18:39:04.556Z,3.10
2017-12-14T18:41:33.572Z,3.00
2017-12-14T18:44:01.842Z,3.00
2017-12-14T18:46:30.134Z,2.90
2017-12-14T18:48:58.387Z,2.90
2017-12-14T18:51:26.659Z,2.90
2017-12-14T18:53:55.700Z,2.90
2017-12-14T18:56:23.959Z,2.90
2017-12-14T18:58:52.225Z,2.90
2017-12-14T19:01:20.514Z,2.90
2017-12-14T19:03:48.809Z,2.90
2017-12-14T19:06:17.073Z,2.90
2017-12-14T19:08:45.383Z,2.90
2017-12-14T19:11:13.643Z,2.90
2017-12-14T19:13:41.905Z,2.90
2017-12-14T19:16:10.193Z,3.00
2017-12-14T19:18:38.890Z,3.00
2017-12-14T19:21:07.178Z,3.10
2017-12-14T19:23:35.452Z,3.10
2017-12-14T19:26:03.722Z,3.20
2017-12-14T19:28:31.968Z,3.20
2017-12-14T19:31:00.251Z,3.20
2017-12-14T19:33:28.660Z,3.20
2017-12-14T19:35:56.912Z,3.20
2017-12-14T19:38:25.196Z,3.20
2017-12-14T19:40:53.452Z,3.20
2017-12-14T19:43:21.708Z,3.10
2017-12-14T19:45:50.003Z,3.00
2017-12-14T19:48:18.262Z,3.00
2017-12-14T19:50:47.290Z,3.00
2017-12-14T19:53:15.580Z,3.00
2017-12-14T19:55:43.840Z,3.00
2017-12-14T19:58:12.124Z,3.00
2017-12-14T20:00:40.401Z,3.00
2017-12-14T20:03:08.689Z,3.00
2017-12-14T20:05:36.967Z,3.00
2017-12-14T20:08:05.248Z,3.10
2017-12-14T20:10:33.548Z,3.10
2017-12-14T20:13:01.800Z,3.10
2017-12-14T20:15:30.112Z,3.10
2017-12-14T20:17:59.124Z,3.10
2017-12-14T20:20:27.392Z,3.10
2017-12-14T20:22:56.437Z,3.10
2017-12-14T20:25:24.697Z,3.10
2017-12-14T20:27:53.000Z,3.20
2017-12-14T20:30:21.285Z,3.20
2017-12-14T20:32:49.531Z,3.20
2017-12-14T20:35:17.799Z,3.30
2017-12-14T20:37:46.064Z,3.30
2017-12-14T20:40:14.385Z,3.30
2017-12-14T20:42:42.665Z,3.30
2017-12-14T20:45:10.957Z,3.30
2017-12-14T20:47:39.227Z,3.30
2017-12-14T20:50:07.495Z,3.30
2017-12-14T20:52:35.769Z,3.30
2017-12-14T20:55:04.040Z,3.30
2017-12-14T20:57:32.302Z,3.30
2017-12-14T21:00:00.583Z,3.30
2017-12-14T21:02:28.841Z,3.30
2017-12-14T21:04:57.105Z,3.40
2017-12-14T21:07:25.391Z,3.50
2017-12-14T21:09:53.656Z,3.40
2017-12-14T21:12:21.925Z,3.40
2017-12-14T21:14:50.988Z,3.40
2017-12-14T21:17:20.018Z,3.40
2017-12-14T21:19:49.044Z,3.50
2017-12-14T21:22:17.351Z,3.50
2017-12-14T21:24:45.613Z,3.50
2017-12-14T21:27:13.873Z,3.50
2017-12-14T21:29:42.147Z,3.50
2017-12-14T21:32:10.412Z,3.50
2017-12-14T21:34:38.724Z,3.40
2017-12-14T21:37:07.005Z,3.40
2017-12-14T21:39:35.260Z,3.40
2017-12-14T21:42:03.520Z,3.40
2017-12-14T21:44:34.509Z,3.50
2017-12-14T21:47:04.892Z,3.40
2017-12-14T21:49:33.201Z,3.40
2017-12-14T21:52:01.467Z,3.40
2017-12-14T21:54:29.768Z,3.40
2017-12-14T21:56:58.817Z,3.40
2017-12-14T21:59:27.091Z,3.40
2017-12-14T22:01:55.353Z,3.40
2017-12-14T22:04:23.651Z,3.40
2017-12-14T22:06:51.908Z,3.40
2017-12-14T22:09:20.933Z,3.40
2017-12-14T22:11:49.209Z,3.40
2017-12-14T22:14:17.477Z,3.50
2017-12-14T22:16:45.740Z,3.50
2017-12-14T22:19:14.024Z,3.50
2017-12-14T22:21:42.284Z,3.60
2017-12-14T22:24:11.311Z,3.60
2017-12-14T22:26:39.609Z,3.50
2017-12-14T22:29:07.867Z,3.60
2017-12-14T22:31:36.112Z,3.60
2017-12-14T22:34:04.405Z,3.60
2017-12-14T22:36:32.661Z,3.60
2017-12-14T22:39:01.711Z,3.70
2017-12-14T22:41:29.989Z,3.70
2017-12-14T22:43:58.271Z,3.60
2017-12-14T22:46:26.525Z,3.70
2017-12-14T22:48:54.800Z,3.70
2017-12-14T22:51:23.068Z,3.70
2017-12-14T22:53:51.324Z,3.70
2017-12-14T22:56:20.368Z,3.70
2017-12-14T22:58:48.634Z,3.70
2017-12-14T23:01:16.929Z,3.70
2017-12-14T23:03:45.198Z,3.70
2017-12-14T23:06:13.452Z,3.80
2017-12-14T23:08:41.861Z,3.70
2017-12-14T23:11:10.123Z,3.80
2017-12-14T23:13:38.429Z,3.80
2017-12-14T23:16:06.796Z,3.80
2017-12-14T23:18:35.072Z,3.90
2017-12-14T23:21:03.349Z,4.00
2017-12-14T23:23:31.628Z,4.00
2017-12-14T23:25:59.908Z,4.00
2017-12-14T23:28:28.180Z,4.20
2017-12-14T23:30:56.435Z,4.40
2017-12-14T23:33:24.717Z,4.50
2017-12-14T23:35:53.005Z,4.50
2017-12-14T23:38:21.256Z,4.50
2017-12-14T23:40:49.532Z,4.60
2017-12-14T23:43:17.790Z,4.80
2017-12-14T23:45:46.056Z,4.70
2017-12-14T23:48:15.119Z,4.60
2017-12-14T23:50:43.367Z,4.60
2017-12-14T23:53:11.668Z,4.70
2017-12-14T23:55:40.812Z,4.70
2017-12-14T23:58:09.071Z,4.70
